Latest Weather Observations for Kalgoorlie-Boulder

IDW60801

Issued at 1:23 pm WST Monday 30 March 2020 (issued every 10 minutes, with the page automatically refreshed every 10 minutes)

About weather observations | Map of weather stations | Latest weather observations for WA | Other Formats
Station Details ID: 012038 Name: KALGOORLIE-BOULDER AIRPORT Lat: -30.78 Lon: 121.45 Height: 365.3 m
Data from the previous 72 hours. | See also: Recent months at Kalgoorlie-Boulder
Date/Time
WST
Temp
°C
App
Temp
°C
Dew
Point
°C
Rel
Hum
%
Delta-T
°C
Wind Press
QNH
hPa
Press
MSL
hPa
Rain since
9am
mm
Dir  Spd
km/h
Gust
km/h
Spd
kts
Gust
kts
30/01:00pm 26.7 23.7 6.2 27 10.9 SE 11 22 6 12 1015.9 1014.2 0.0
30/12:30pm 25.8 23.0 6.9 30 10.1 NE 11 19 6 10 1016.5 1014.8 0.0
30/12:00pm 25.0 22.3 7.2 32 9.5 NNW 11 19 6 10 1017.3 1015.6 0.0
30/11:30am 24.7 22.5 7.8 34 9.1 NE 9 15 5 8 1017.8 1016.0 0.0
30/11:00am 24.7 22.4 9.0 37 8.6 ENE 11 17 6 9 1018.4 1016.7 0.0
30/10:30am 23.7 22.0 9.7 41 7.8 NNE 9 17 5 9 1018.6 1016.9 0.0
30/10:00am 22.5 20.8 10.0 45 6.9 ENE 9 15 5 8 1018.9 1017.2 0.0
30/09:30am 21.5 20.5 10.3 49 6.2 ENE 6 13 3 7 1019.2 1017.5 0.0
30/09:00am 19.4 17.6 9.3 52 5.4 E 9 11 5 6 1019.3 1017.6 0.0
30/08:30am 17.7 15.7 8.8 56 4.7 ENE 9 15 5 8 1019.3 1017.6 0.0
30/08:00am 16.2 13.4 8.7 61 3.9 E 13 17 7 9 1019.2 1017.5 0.0
30/07:30am 14.8 11.9 8.1 64 3.4 SE 13 19 7 10 1019.0 1017.3 0.0
30/07:00am 14.2 11.2 7.9 66 3.2 SE 13 17 7 9 1018.7 1017.0 0.0
30/06:30am 12.9 10.1 6.9 67 2.9 SSE 11 13 6 7 1018.5 1016.8 0.0
30/06:00am 12.4 9.4 6.2 66 3.0 SE 11 15 6 8 1018.1 1016.4 0.0
30/05:30am 12.5 9.8 5.7 63 3.2 SE 9 13 5 7 1018.1 1016.4 0.0
30/05:00am 12.9 9.8 5.6 61 3.5 SE 11 15 6 8 1018.0 1016.3 0.0
30/04:30am 13.3 9.8 5.5 59 3.7 SE 13 17 7 9 1017.8 1016.0 0.0
30/04:00am 13.8 11.1 5.7 58 3.9 SSE 9 13 5 7 1017.8 1016.0 0.0
30/03:30am 14.0 10.9 5.6 57 4.0 SSE 11 15 6 8 1017.8 1016.0 0.0
30/03:00am 13.9 11.6 5.5 57 4.0 SSE 7 9 4 5 1017.8 1016.0 0.0
30/02:30am 14.5 11.9 6.1 57 4.1 SSE 9 11 5 6 1017.6 1015.8 0.0
30/02:00am 15.0 12.1 6.3 56 4.3 SSE 11 15 6 8 1017.7 1015.9 0.0
30/01:30am 14.7 12.5 6.3 57 4.1 S 7 9 4 5 1017.8 1016.0 0.0
30/01:00am 15.1 12.2 6.4 56 4.3 S 11 11 6 6 1017.7 1015.9 0.0
30/12:30am 15.8 13.4 6.8 55 4.5 SSE 9 13 5 7 1017.5 1015.7 0.0
30/12:00am 16.1 13.3 6.8 54 4.7 SSW 11 13 6 7 1017.5 1015.7 0.0
 
Date/Time
WST
Temp
°C
App
Temp
°C
Dew
Point
°C
Rel
Hum
%
Delta-T
°C
Wind Press
QNH
hPa
Press
MSL
hPa
Rain since
9am
mm
Dir  Spd
km/h
Gust
km/h
Spd
kts
Gust
kts
29/11:30pm 17.1 15.1 6.9 51 5.2 SSE 7 11 4 6 1017.6 1015.8 0.0
29/11:00pm 17.3 14.9 7.1 51 5.2 ESE 9 11 5 6 1017.5 1015.7 0.0
29/10:30pm 18.4 15.7 7.2 48 5.7 SSE 11 13 6 7 1017.9 1016.2 0.0
29/10:00pm 18.7 16.0 7.5 48 5.8 SE 11 13 6 7 1017.8 1016.0 0.0
29/09:30pm 18.4 17.8 7.2 48 5.7 CALM 0 4 0 2 1017.7 1015.9 0.0
29/09:00pm 18.9 18.5 8.3 50 5.6 CALM 0 0 0 0 1017.7 1015.9 0.0
29/08:30pm 19.6 17.9 7.4 45 6.3 SSE 6 11 3 6 1017.8 1016.0 0.0
29/08:00pm 20.7 17.8 8.0 44 6.7 ESE 13 15 7 8 1017.6 1015.8 0.0
29/07:30pm 21.1 18.5 7.7 42 7.1 SE 11 13 6 7 1017.3 1015.6 0.0
29/07:00pm 21.9 19.9 7.3 39 7.7 SE 7 15 4 8 1017.0 1015.3 0.0
29/06:30pm 22.3 20.9 5.7 34 8.5 NW 2 6 1 3 1016.5 1014.8 0.0
29/06:00pm 23.2 21.1 6.5 34 8.7 SW 7 9 4 5 1016.2 1014.5 0.0
29/05:30pm 24.4 22.5 6.6 32 9.4 SSE 6 9 3 5 1016.0 1014.3 0.0
29/05:00pm 25.1 23.2 6.8 31 9.7 NNW 6 13 3 7 1015.9 1014.2 0.0
29/04:30pm 24.7 22.5 6.4 31 9.6 NE 7 11 4 6 1015.9 1014.2 0.0
29/04:00pm 25.3 22.8 6.5 30 9.9 WSW 9 15 5 8 1015.8 1014.1 0.0
29/03:30pm 24.6 22.1 6.4 31 9.6 SSW 9 17 5 9 1015.7 1014.0 0.0
29/03:00pm 24.7 21.9 6.9 32 9.4 WSW 11 20 6 11 1015.8 1014.1 0.0
29/02:30pm 24.1 21.4 7.3 34 8.9 SW 11 20 6 11 1015.9 1014.2 0.0
29/02:00pm 24.3 21.9 7.0 33 9.2 S 9 20 5 11 1015.9 1014.2 0.0
29/01:30pm 24.2 21.5 9.0 38 8.3 WNW 13 20 7 11 1016.3 1014.6 0.0
29/01:00pm 22.7 21.2 9.1 42 7.4 N 7 11 4 6 1016.7 1015.0 0.0
29/12:30pm 21.9 19.7 9.4 45 6.8 NE 11 17 6 9 1017.2 1015.5 0.0
29/12:00pm 21.3 20.2 9.9 48 6.2 NE 6 13 3 7 1017.9 1016.2 0.0
29/11:30am 20.4 18.9 10.5 53 5.5 ENE 9 17 5 9 1018.2 1016.5 0.0
29/11:00am 19.0 17.0 10.0 56 4.9 SSE 11 20 6 11 1018.5 1016.8 0.0
29/10:30am 18.1 16.1 10.2 60 4.3 SE 11 17 6 9 1019.0 1017.3 0.0
29/10:00am 17.2 14.4 10.1 63 3.8 ESE 15 19 8 10 1018.6 1016.9 0.0
29/09:30am 16.6 13.5 10.2 66 3.4 SE 17 20 9 11 1018.6 1016.9 0.0
29/09:00am 16.2 13.3 9.8 66 3.4 SE 15 19 8 10 1018.9 1017.2 0.0
29/08:30am 15.7 12.8 9.6 67 3.2 SE 15 20 8 11 1018.2 1016.5 0.0
29/08:00am 15.5 12.6 9.6 68 3.1 SE 15 19 8 10 1018.1 1016.4 0.0
29/07:30am 15.5 13.0 9.6 68 3.1 ESE 13 20 7 11 1017.8 1016.0 0.0
29/07:00am 15.3 12.7 9.4 68 3.1 SE 13 17 7 9 1017.2 1015.5 0.0
29/06:30am 15.3 12.8 9.7 69 3.0 SE 13 17 7 9 1017.1 1015.4 0.0
29/06:00am 15.3 12.3 9.4 68 3.1 SE 15 19 8 10 1016.9 1015.2 0.0
29/05:30am 15.5 12.2 9.4 67 3.2 SE 17 22 9 12 1016.2 1014.5 0.0
29/05:00am 15.4 12.0 9.3 67 3.2 SE 17 28 9 15 1016.4 1014.7 0.0
29/04:30am 15.8 12.5 9.5 66 3.3 SE 17 24 9 13 1016.2 1014.5 0.0
29/04:00am 16.2 12.7 10.1 67 3.3 SE 19 24 10 13 1016.1 1014.4 0.0
29/03:30am 16.5 13.1 10.6 68 3.2 SE 19 24 10 13 1015.7 1014.0 0.0
29/03:00am 16.9 14.3 10.7 67 3.4 SE 15 22 8 12 1015.4 1013.6 0.0
29/02:30am 17.2 14.2 10.6 65 3.6 SE 17 26 9 14 1015.4 1013.6 0.0
29/02:00am 17.6 15.2 10.0 61 4.1 SSE 13 19 7 10 1015.6 1013.9 0.0
29/01:30am 17.8 15.5 8.9 56 4.7 SSE 11 15 6 8 1015.5 1013.8 0.0
29/01:00am 18.1 14.5 6.9 48 5.7 S 15 20 8 11 1015.4 1013.6 0.0
29/12:30am 18.6 15.0 4.8 40 6.8 SSW 13 15 7 8 1015.2 1013.4 0.0
29/12:00am 19.2 16.0 4.9 39 7.1 SW 11 13 6 7 1015.1 1013.3 0.0
 
Date/Time
WST
Temp
°C
App
Temp
°C
Dew
Point
°C
Rel
Hum
%
Delta-T
°C
Wind Press
QNH
hPa
Press
MSL
hPa
Rain since
9am
mm
Dir  Spd
km/h
Gust
km/h
Spd
kts
Gust
kts
28/11:30pm 19.3 16.5 5.0 39 7.1 SSW 9 13 5 7 1015.1 1013.3 0.0
28/11:00pm 19.5 16.7 5.2 39 7.1 SSW 9 15 5 8 1015.3 1013.5 0.0
28/10:30pm 20.1 17.0 5.4 38 7.4 SSW 11 15 6 8 1015.4 1013.6 0.0
28/10:00pm 20.4 17.8 6.0 39 7.3 SSW 9 13 5 7 1015.5 1013.8 0.0
28/09:30pm 20.6 18.2 6.9 41 7.1 SSW 9 11 5 6 1015.5 1013.8 0.0
28/09:00pm 21.6 19.0 7.8 41 7.3 SW 11 15 6 8 1015.7 1014.0 0.0
28/08:30pm 21.9 19.1 8.4 42 7.2 SW 13 19 7 10 1015.4 1013.6 0.0
28/08:00pm 22.3 19.6 8.8 42 7.3 WSW 13 17 7 9 1015.3 1013.5 0.0
28/07:30pm 22.9 20.2 9.0 41 7.6 WSW 13 17 7 9 1014.9 1013.1 0.0
28/07:00pm 23.8 19.4 9.0 39 8.1 SW 22 30 12 16 1014.4 1012.7 0.0
28/06:30pm 24.3 20.9 10.6 42 7.7 SW 19 28 10 15 1013.8 1012.1 0.0
28/06:00pm 25.1 21.1 10.6 40 8.2 SW 22 30 12 16 1013.3 1011.6 0.0
28/05:30pm 25.9 22.4 10.9 39 8.6 SW 20 28 11 15 1012.7 1010.9 0.0
28/05:00pm 27.0 22.7 10.7 36 9.3 WSW 24 35 13 19 1012.5 1010.7 0.0
28/04:30pm 27.9 23.9 10.6 34 9.9 WSW 22 35 12 19 1012.3 1010.5 0.0
28/04:00pm 28.1 23.9 11.2 35 9.8 W 24 35 13 19 1012.3 1010.5 0.0
28/03:30pm 28.1 23.8 12.0 36 9.5 WSW 26 39 14 21 1012.4 1010.6 0.0
28/03:00pm 28.2 23.5 12.1 37 9.5 W 28 39 15 21 1012.3 1010.5 0.0
28/02:30pm 29.2 25.2 13.0 37 9.7 WSW 26 35 14 19 1012.4 1010.6 0.0
28/02:00pm 27.6 23.5 12.8 40 8.8 W 26 39 14 21 1012.6 1010.8 0.0
28/01:58pm 27.5 23.5 13.1 41 8.6 W 26 39 14 21 1012.7 1010.9 0.0
28/01:40pm 27.8 23.3 12.6 39 9.0 WSW 28 44 15 24 1012.5 1010.7 0.0
28/01:30pm 28.7 25.2 13.4 39 9.2 W 24 44 13 24 1012.5 1010.7 0.0
28/01:00pm 27.8 25.4 13.7 42 8.5 W 19 32 10 17 1012.8 1011.0 0.0
28/12:30pm 27.4 24.4 13.7 43 8.3 SW 22 39 12 21 1013.2 1011.5 0.0
28/12:00pm 27.0 23.7 14.1 45 7.8 WSW 24 33 13 18 1013.6 1011.9 0.0
28/11:30am 26.3 23.9 14.4 48 7.2 WSW 20 30 11 16 1013.8 1012.1 0.0
28/11:00am 26.0 23.9 15.1 51 6.7 WSW 20 35 11 19 1014.1 1012.4 0.0
28/10:30am 24.8 22.1 14.6 53 6.2 WSW 22 32 12 17 1014.3 1012.6 0.0
28/10:00am 24.6 22.0 15.0 55 5.8 W 22 32 12 17 1014.4 1012.7 0.0
28/09:30am 23.8 21.2 14.8 57 5.4 SW 22 32 12 17 1014.7 1012.9 0.0
28/09:00am 23.2 20.5 14.7 58 5.1 WSW 22 30 12 16 1014.8 1013.0 0.0
28/08:30am 22.5 20.3 14.9 62 4.6 WSW 20 30 11 16 1014.8 1013.0 0.0
28/08:00am 22.1 19.5 15.0 64 4.3 WSW 22 32 12 17 1014.6 1012.8 0.0
28/07:30am 21.5 19.4 15.1 67 3.9 WSW 20 28 11 15 1014.3 1012.6 0.0
28/07:00am 21.0 20.3 15.3 70 3.4 W 13 17 7 9 1014.0 1012.3 0.0
28/06:30am 20.3 18.8 15.3 73 3.0 WSW 17 22 9 12 1013.8 1012.1 0.0
28/06:00am 20.0 19.5 15.0 73 3.0 WSW 11 13 6 7 1013.4 1011.7 0.0
28/05:30am 20.7 19.9 15.0 70 3.4 WSW 13 22 7 12 1013.0 1011.3 0.0
28/05:00am 21.4 20.2 15.0 67 3.8 WSW 15 19 8 10 1012.6 1010.8 0.0
28/04:30am 21.6 20.7 13.8 61 4.6 WSW 11 19 6 10 1012.2 1010.4 0.0
28/04:00am 22.6 21.8 13.9 58 5.2 WSW 11 15 6 8 1011.9 1010.1 0.0
28/03:30am 23.4 22.1 13.6 54 5.8 WSW 13 17 7 9 1011.7 1009.9 0.0
28/03:00am 24.0 22.4 12.9 50 6.5 W 13 19 7 10 1011.4 1009.7 0.0
28/02:30am 24.6 22.9 12.5 46 7.1 W 13 17 7 9 1011.2 1009.5 0.0
28/02:00am 25.2 23.3 11.7 43 7.8 W 13 22 7 12 1011.2 1009.5 0.0
28/01:30am 25.3 23.6 11.1 41 8.1 W 11 15 6 8 1011.2 1009.5 0.0
28/01:00am 26.3 24.5 10.9 38 8.8 W 11 17 6 9 1011.3 1009.6 0.0
28/12:30am 26.1 24.3 9.5 35 9.3 WNW 9 11 5 6 1011.3 1009.6 0.0
28/12:00am 26.8 24.6 7.8 30 10.4 NW 9 11 5 6 1011.4 1009.7 0.0
 
Date/Time
WST
Temp
°C
App
Temp
°C
Dew
Point
°C
Rel
Hum
%
Delta-T
°C
Wind Press
QNH
hPa
Press
MSL
hPa
Rain since
9am
mm
Dir  Spd
km/h
Gust
km/h
Spd
kts
Gust
kts
27/11:30pm 27.8 25.2 7.6 28 11.0 WNW 11 17 6 9 1011.4 1009.7 0.0
27/11:00pm 27.4 25.1 7.3 28 10.9 NW 9 13 5 7 1011.5 1009.8 0.0
27/10:30pm 29.1 26.3 7.1 25 12.0 WNW 11 17 6 9 1011.7 1009.9 0.0
27/10:00pm 30.3 26.4 6.9 23 12.8 NNW 17 30 9 16 1011.4 1009.7 0.0
27/09:30pm 29.5 26.3 6.8 24 12.3 N 13 19 7 10 1011.1 1009.4 0.0
27/09:00pm 29.8 25.9 7.1 24 12.4 N 17 20 9 11 1011.3 1009.6 0.0
27/08:30pm 29.4 26.4 7.9 26 11.9 N 13 17 7 9 1011.3 1009.6 0.0
27/08:00pm 28.5 26.3 7.7 27 11.4 N 9 13 5 7 1011.4 1009.7 0.0
27/07:30pm 29.1 27.0 8.2 27 11.6 N 9 11 5 6 1011.4 1009.7 0.0
27/07:00pm 29.7 27.6 8.2 26 12.0 N 9 9 5 5 1011.4 1009.7 0.0
27/06:30pm 30.9 28.7 8.0 24 12.8 N 9 11 5 6 1011.5 1009.8 0.0
27/06:00pm 32.5 29.8 7.4 21 14.0 NNW 11 15 6 8 1011.5 1009.8 0.0
27/05:30pm 33.7 29.9 7.6 20 14.7 NNW 17 24 9 13 1011.7 1009.9 0.0
27/05:00pm 34.2 30.3 7.3 19 15.1 NNW 17 22 9 12 1011.8 1010.0 0.0
27/04:30pm 34.6 31.0 6.8 18 15.5 N 15 20 8 11 1011.8 1010.0 0.0
27/04:00pm 34.3 30.3 6.6 18 15.4 NNW 17 26 9 14 1011.9 1010.1 0.0
27/03:30pm 34.5 30.3 5.9 17 15.7 N 17 24 9 13 1012.2 1010.4 0.0
27/03:00pm 34.2 30.5 6.5 18 15.4 N 15 22 8 12 1012.5 1010.7 0.0
27/02:30pm 34.0 29.8 5.5 17 15.5 NNE 17 24 9 13 1012.9 1011.1 0.0
27/02:00pm 33.8 29.1 6.2 18 15.2 N 20 26 11 14 1013.5 1011.8 0.0
27/01:30pm 33.6 29.2 7.6 20 14.6 NNW 20 30 11 16 1014.2 1012.5 0.0

Other formats

Comma delimited format used in spreadsheet applications
http://www.bom.gov.au/fwo/IDW60801/IDW60801.94637.axf

JavaScript Object Notation format (JSON) in row-major order
http://www.bom.gov.au/fwo/IDW60801/IDW60801.94637.json

Data quality

Most of these data are generated automatically and are frequently updated. Quality checks on data are not normally performed. It is possible for incorrect values to appear. Refer to information at About Latest Weather Observations and please check the disclaimer before using these data.